Time;durP1;ratioP1;P1;durP2;ratioP2;P2;SDS_P1;SDS_P2;PMS_P1;PMS_P2;Temp;Humidity;BMP_temperature;BMP_pressure;BME280_temperature;BME280_humidity;BME280_pressure;Samples;Min_cycle;Max_cycle;Signal;HPM_P1;HPM_P2
2021/08/18 00:01:38;;;;;;;4.45;2.63;;;;;;;;;;4973890;28;20082;-65
2021/08/18 00:04:04;;;;;;;4.22;2.60;;;;;;;;;;4973905;28;20023;-65
2021/08/18 00:06:30;;;;;;;4.72;2.80;;;;;;;;;;4978782;28;20377;-65
2021/08/18 00:08:56;;;;;;;3.25;2.50;;;;;;;;;;4973595;28;20038;-65
2021/08/18 00:11:22;;;;;;;5.15;2.60;;;;;;;;;;4978904;28;20061;-66
2021/08/18 00:13:48;;;;;;;6.70;2.50;;;;;;;;;;4973710;28;20022;-65
2021/08/18 00:16:15;;;;;;;4.35;2.40;;;;;;;;;;4973380;28;20035;-64
2021/08/18 00:18:41;;;;;;;3.65;2.40;;;;;;;;;;4975838;28;20030;-65
2021/08/18 00:21:07;;;;;;;3.60;2.35;;;;;;;;;;4973396;28;20472;-65
2021/08/18 00:23:34;;;;;;;5.72;2.65;;;;;;;;;;4974044;28;20117;-66
2021/08/18 00:26:00;;;;;;;4.40;2.90;;;;;;;;;;4976586;28;20023;-66
2021/08/18 00:28:26;;;;;;;4.55;2.47;;;;;;;;;;4975374;28;20027;-65
2021/08/18 00:30:52;;;;;;;6.43;2.50;;;;;;;;;;4974253;28;20110;-66
2021/08/18 00:33:18;;;;;;;4.50;2.58;;;;;;;;;;4972954;28;20035;-66
2021/08/18 00:35:46;;;;;;;4.28;2.50;;;;;;;;;;4979920;28;20038;-66
2021/08/18 00:38:12;;;;;;;5.35;2.53;;;;;;;;;;4976768;28;20034;-65
2021/08/18 00:40:38;;;;;;;6.00;2.50;;;;;;;;;;4977824;28;20038;-65
2021/08/18 00:43:04;;;;;;;6.95;2.70;;;;;;;;;;4973714;28;20022;-67
2021/08/18 00:45:30;;;;;;;4.10;2.63;;;;;;;;;;4973267;28;20026;-65
2021/08/18 00:47:58;;;;;;;3.00;2.30;;;;;;;;;;4976407;28;20050;-66
2021/08/18 00:50:27;;;;;;;3.78;2.35;;;;;;;;;;4973199;28;20027;-65
2021/08/18 00:52:56;;;;;;;6.53;2.40;;;;;;;;;;4974609;28;20027;-65
2021/08/18 00:55:24;;;;;;;3.97;2.50;;;;;;;;;;4972796;28;20034;-65
2021/08/18 00:57:50;;;;;;;5.05;2.50;;;;;;;;;;4972980;28;20031;-65
2021/08/18 01:00:17;;;;;;;4.28;2.40;;;;;;;;;;4975438;28;20038;-66
2021/08/18 01:02:46;;;;;;;4.00;2.38;;;;;;;;;;4973885;28;20022;-66
2021/08/18 01:05:13;;;;;;;6.13;2.40;;;;;;;;;;4973207;28;20421;-65
2021/08/18 01:07:39;;;;;;;3.95;2.30;;;;;;;;;;4972713;28;20050;-65
2021/08/18 01:10:06;;;;;;;5.55;2.47;;;;;;;;;;4972876;28;20039;-65
2021/08/18 01:12:33;;;;;;;5.80;2.50;;;;;;;;;;4974502;28;20488;-65
2021/08/18 01:15:01;;;;;;;5.10;2.60;;;;;;;;;;4972126;28;20081;-66
2021/08/18 01:17:30;;;;;;;4.55;2.58;;;;;;;;;;4955146;28;20098;-66
2021/08/18 01:19:56;;;;;;;5.18;2.60;;;;;;;;;;4971987;28;20042;-66
2021/08/18 01:22:22;;;;;;;3.83;2.38;;;;;;;;;;4972724;28;20029;-66
2021/08/18 01:24:48;;;;;;;3.85;2.40;;;;;;;;;;4975063;28;20042;-65
2021/08/18 01:27:14;;;;;;;6.18;2.70;;;;;;;;;;4979039;28;20031;-66
2021/08/18 01:29:41;;;;;;;3.58;2.25;;;;;;;;;;4975799;28;20130;-65
2021/08/18 01:32:07;;;;;;;5.20;2.50;;;;;;;;;;4980487;28;20420;-66
2021/08/18 01:34:35;;;;;;;7.05;2.53;;;;;;;;;;4972258;28;20406;-64
2021/08/18 01:37:01;;;;;;;6.18;2.90;;;;;;;;;;4979525;28;20094;-65
2021/08/18 01:39:27;;;;;;;5.80;2.75;;;;;;;;;;4971833;28;20038;-66
2021/08/18 01:41:53;;;;;;;6.38;2.70;;;;;;;;;;4972724;28;20037;-66
2021/08/18 01:44:19;;;;;;;5.50;2.53;;;;;;;;;;4973484;28;20031;-65
2021/08/18 01:46:45;;;;;;;5.40;2.58;;;;;;;;;;4972062;28;20050;-66
2021/08/18 01:49:11;;;;;;;5.97;2.83;;;;;;;;;;4972807;28;20058;-65
2021/08/18 01:51:37;;;;;;;3.83;2.50;;;;;;;;;;4972516;28;20117;-65
2021/08/18 01:54:03;;;;;;;4.22;2.80;;;;;;;;;;4972451;28;20045;-66
2021/08/18 01:56:31;;;;;;;4.55;2.55;;;;;;;;;;4977421;28;20030;-66
2021/08/18 01:58:58;;;;;;;4.40;2.60;;;;;;;;;;4972581;28;20066;-66
2021/08/18 02:01:24;;;;;;;6.50;2.72;;;;;;;;;;4976042;28;20415;-65
2021/08/18 02:03:50;;;;;;;7.55;2.58;;;;;;;;;;4974271;28;20430;-65
2021/08/18 02:06:17;;;;;;;5.95;2.70;;;;;;;;;;4975271;28;20477;-66
2021/08/18 02:08:43;;;;;;;3.30;2.72;;;;;;;;;;4972270;28;20034;-65
2021/08/18 02:11:10;;;;;;;4.47;2.70;;;;;;;;;;4971801;28;20113;-65
2021/08/18 02:13:36;;;;;;;4.72;2.75;;;;;;;;;;4970818;28;20026;-66
2021/08/18 02:16:02;;;;;;;4.47;2.55;;;;;;;;;;4970987;28;20500;-66
2021/08/18 02:18:28;;;;;;;4.38;2.70;;;;;;;;;;4979324;28;20413;-65
2021/08/18 02:20:55;;;;;;;7.15;2.78;;;;;;;;;;4972447;28;20031;-65
2021/08/18 02:23:21;;;;;;;4.95;2.80;;;;;;;;;;4972221;28;21015;-66
2021/08/18 02:25:48;;;;;;;5.35;3.10;;;;;;;;;;4972303;28;20031;-66
2021/08/18 02:28:14;;;;;;;5.35;3.00;;;;;;;;;;4971093;28;20035;-65
2021/08/18 02:30:40;;;;;;;3.72;2.70;;;;;;;;;;4972490;28;20058;-66
2021/08/18 02:33:08;;;;;;;5.40;2.70;;;;;;;;;;4975467;28;20359;-65
2021/08/18 02:35:34;;;;;;;5.38;2.65;;;;;;;;;;4972865;28;20042;-65
2021/08/18 02:38:00;;;;;;;4.32;2.53;;;;;;;;;;4976161;28;20026;-66
2021/08/18 02:40:27;;;;;;;5.57;3.10;;;;;;;;;;4972992;28;20094;-67
2021/08/18 02:42:53;;;;;;;10.13;2.95;;;;;;;;;;4976042;28;20384;-65
2021/08/18 02:45:21;;;;;;;5.65;3.00;;;;;;;;;;4971475;28;20035;-65
2021/08/18 02:47:48;;;;;;;5.90;3.00;;;;;;;;;;4975782;28;20190;-65
2021/08/18 02:50:15;;;;;;;4.30;2.92;;;;;;;;;;4971569;28;20058;-65
2021/08/18 02:52:41;;;;;;;5.38;3.20;;;;;;;;;;4973233;28;20023;-66
2021/08/18 02:55:08;;;;;;;4.72;2.75;;;;;;;;;;4976365;28;20049;-66
2021/08/18 02:57:34;;;;;;;5.53;2.70;;;;;;;;;;4975689;28;20069;-65
2021/08/18 03:00:00;;;;;;;5.57;3.15;;;;;;;;;;4975045;28;20031;-66
2021/08/18 03:02:26;;;;;;;4.55;2.80;;;;;;;;;;4975322;28;20026;-66
2021/08/18 03:04:52;;;;;;;6.15;3.33;;;;;;;;;;4975264;28;20556;-65
2021/08/18 03:07:19;;;;;;;5.40;2.70;;;;;;;;;;4979537;28;20150;-66
2021/08/18 03:09:45;;;;;;;4.35;2.83;;;;;;;;;;4977435;28;20034;-66
2021/08/18 03:12:11;;;;;;;7.15;3.00;;;;;;;;;;4975470;28;20035;-65
2021/08/18 03:14:39;;;;;;;4.47;2.78;;;;;;;;;;4975624;28;20556;-66
2021/08/18 03:17:05;;;;;;;5.07;2.92;;;;;;;;;;4981310;28;20445;-66
2021/08/18 03:19:31;;;;;;;6.93;2.92;;;;;;;;;;4975603;28;20102;-65
2021/08/18 03:21:57;;;;;;;5.22;2.80;;;;;;;;;;4974752;28;20030;-65
2021/08/18 03:24:23;;;;;;;5.30;2.63;;;;;;;;;;4975815;28;20027;-65
2021/08/18 03:26:50;;;;;;;7.75;3.20;;;;;;;;;;4975672;28;20477;-66
2021/08/18 03:29:16;;;;;;;5.00;3.08;;;;;;;;;;4977051;28;20035;-64
2021/08/18 03:31:42;;;;;;;8.75;2.97;;;;;;;;;;4974799;28;20090;-65
2021/08/18 03:34:08;;;;;;;6.47;3.10;;;;;;;;;;4975275;28;20509;-65
2021/08/18 03:36:34;;;;;;;8.07;3.13;;;;;;;;;;4976157;28;20488;-66
2021/08/18 03:39:00;;;;;;;7.55;3.00;;;;;;;;;;4973885;28;20031;-66
2021/08/18 03:41:26;;;;;;;6.75;3.08;;;;;;;;;;4975381;28;20491;-65
2021/08/18 03:43:52;;;;;;;7.50;3.10;;;;;;;;;;4974273;28;20031;-66
2021/08/18 03:46:18;;;;;;;4.68;2.92;;;;;;;;;;4976992;28;20074;-65
2021/08/18 03:48:44;;;;;;;5.90;3.10;;;;;;;;;;4975118;28;20041;-65
2021/08/18 03:51:10;;;;;;;3.88;2.65;;;;;;;;;;4979400;28;20151;-65
2021/08/18 03:53:36;;;;;;;6.57;3.00;;;;;;;;;;4975562;28;20027;-65
2021/08/18 03:56:03;;;;;;;6.03;3.13;;;;;;;;;;4975747;28;20129;-66
2021/08/18 03:58:29;;;;;;;7.93;3.50;;;;;;;;;;4980569;28;20034;-66
2021/08/18 04:00:55;;;;;;;7.25;3.10;;;;;;;;;;4975534;28;20557;-65
2021/08/18 04:03:21;;;;;;;6.55;3.33;;;;;;;;;;4973579;28;20110;-64
2021/08/18 04:05:47;;;;;;;7.65;3.53;;;;;;;;;;4974223;28;20500;-65
2021/08/18 04:08:13;;;;;;;7.95;3.53;;;;;;;;;;4975997;28;20089;-65
2021/08/18 04:10:40;;;;;;;5.07;3.17;;;;;;;;;;4976401;28;20019;-65
2021/08/18 04:13:10;;;;;;;5.35;3.28;;;;;;;;;;4975432;28;20023;-66
2021/08/18 04:15:41;;;;;;;6.30;3.47;;;;;;;;;;4978370;28;20121;-66
2021/08/18 04:18:07;;;;;;;7.40;3.60;;;;;;;;;;4973815;28;20023;-65
2021/08/18 04:20:34;;;;;;;5.97;2.92;;;;;;;;;;4976504;28;20035;-66
2021/08/18 04:23:02;;;;;;;7.85;3.10;;;;;;;;;;4975730;28;20105;-65
2021/08/18 04:25:29;;;;;;;7.57;3.22;;;;;;;;;;4982818;28;20038;-65
2021/08/18 04:28:01;;;;;;;5.90;3.10;;;;;;;;;;4977391;28;20030;-69
2021/08/18 04:30:27;;;;;;;5.45;3.10;;;;;;;;;;4970172;28;20030;-67
2021/08/18 04:32:53;;;;;;;6.70;3.17;;;;;;;;;;4977210;28;20031;-68
2021/08/18 04:35:20;;;;;;;6.03;3.17;;;;;;;;;;4964099;28;20038;-66
2021/08/18 04:37:48;;;;;;;7.22;3.20;;;;;;;;;;4976100;28;20031;-67
2021/08/18 04:40:15;;;;;;;6.55;3.10;;;;;;;;;;4977786;28;20023;-65
2021/08/18 04:42:42;;;;;;;10.30;3.50;;;;;;;;;;4977474;28;20023;-72
2021/08/18 04:45:09;;;;;;;7.82;3.40;;;;;;;;;;4971526;28;20031;-65
2021/08/18 04:47:38;;;;;;;7.15;3.60;;;;;;;;;;4976753;28;20417;-65
2021/08/18 04:50:05;;;;;;;15.25;3.40;;;;;;;;;;4975880;28;20464;-66
2021/08/18 04:52:31;;;;;;;6.75;3.20;;;;;;;;;;4973942;28;20027;-67
2021/08/18 04:54:57;;;;;;;5.78;2.92;;;;;;;;;;4972068;28;20042;-67
2021/08/18 04:57:23;;;;;;;6.10;3.20;;;;;;;;;;4982316;28;20026;-66
2021/08/18 04:59:50;;;;;;;18.90;4.13;;;;;;;;;;4973492;28;20496;-67
2021/08/18 05:02:16;;;;;;;5.82;3.05;;;;;;;;;;4965625;28;20042;-66
2021/08/18 05:04:42;;;;;;;6.18;3.03;;;;;;;;;;4979135;28;20085;-66
2021/08/18 05:07:08;;;;;;;6.45;3.33;;;;;;;;;;4975636;28;20461;-66
2021/08/18 05:09:34;;;;;;;5.05;2.70;;;;;;;;;;4976551;28;20034;-67
2021/08/18 05:12:00;;;;;;;6.18;3.20;;;;;;;;;;4978321;28;20097;-65
2021/08/18 05:14:27;;;;;;;8.63;3.20;;;;;;;;;;4978092;28;20037;-67
2021/08/18 05:16:53;;;;;;;6.75;3.20;;;;;;;;;;4973813;28;20042;-67
2021/08/18 05:19:19;;;;;;;10.52;3.63;;;;;;;;;;4977680;28;20026;-66
2021/08/18 05:21:45;;;;;;;7.57;3.50;;;;;;;;;;4972908;28;20113;-67
2021/08/18 05:24:12;;;;;;;8.55;3.67;;;;;;;;;;4975217;28;20427;-67
2021/08/18 05:26:40;;;;;;;8.25;3.85;;;;;;;;;;4977244;28;20404;-67
2021/08/18 05:29:06;;;;;;;9.80;3.65;;;;;;;;;;4971434;28;20526;-67
2021/08/18 05:31:32;;;;;;;7.10;3.30;;;;;;;;;;4974240;28;20468;-67
2021/08/18 05:34:04;;;;;;;6.57;3.10;;;;;;;;;;4977218;28;20498;-67
2021/08/18 05:36:30;;;;;;;6.03;3.03;;;;;;;;;;4977496;28;20114;-67
2021/08/18 05:38:56;;;;;;;6.70;3.45;;;;;;;;;;4973608;28;20493;-67
2021/08/18 05:41:22;;;;;;;6.90;3.33;;;;;;;;;;4977191;28;20031;-66
2021/08/18 05:43:48;;;;;;;6.20;3.50;;;;;;;;;;4974526;28;20027;-67
2021/08/18 05:46:14;;;;;;;6.95;3.20;;;;;;;;;;4975933;28;20117;-67
2021/08/18 05:48:40;;;;;;;7.93;3.35;;;;;;;;;;4975286;28;20110;-67
2021/08/18 05:51:08;;;;;;;7.97;3.20;;;;;;;;;;4975450;28;20110;-68
2021/08/18 05:53:34;;;;;;;5.20;3.40;;;;;;;;;;4979910;28;20034;-68
2021/08/18 05:56:00;;;;;;;6.03;3.35;;;;;;;;;;4973211;28;20034;-67
2021/08/18 05:58:26;;;;;;;7.03;3.83;;;;;;;;;;4973770;28;20035;-67
2021/08/18 06:00:52;;;;;;;7.22;3.20;;;;;;;;;;4955827;28;20069;-67
2021/08/18 06:03:20;;;;;;;7.47;3.22;;;;;;;;;;4975213;28;20050;-68
2021/08/18 06:05:46;;;;;;;9.65;3.30;;;;;;;;;;4979166;28;20070;-68
2021/08/18 06:08:12;;;;;;;11.98;3.60;;;;;;;;;;4976379;28;20041;-67
2021/08/18 06:10:38;;;;;;;8.32;3.40;;;;;;;;;;4971129;28;20101;-66
2021/08/18 06:13:04;;;;;;;8.88;3.70;;;;;;;;;;4975660;28;20027;-67
2021/08/18 06:15:30;;;;;;;5.00;2.80;;;;;;;;;;4972570;28;20034;-68
2021/08/18 06:17:56;;;;;;;9.80;3.03;;;;;;;;;;4972233;28;20023;-68
2021/08/18 06:20:22;;;;;;;5.47;3.00;;;;;;;;;;4972325;28;20102;-68
2021/08/18 06:22:49;;;;;;;4.20;3.00;;;;;;;;;;4976919;28;20030;-68
2021/08/18 06:25:15;;;;;;;9.13;3.22;;;;;;;;;;4972998;28;20043;-67
2021/08/18 06:27:41;;;;;;;5.80;3.20;;;;;;;;;;4973686;28;20027;-68
2021/08/18 06:30:09;;;;;;;9.02;3.10;;;;;;;;;;4972875;28;20045;-68
2021/08/18 06:32:35;;;;;;;6.10;3.20;;;;;;;;;;4973252;28;20031;-68
2021/08/18 06:35:01;;;;;;;7.75;2.90;;;;;;;;;;4975239;28;20043;-69
2021/08/18 06:37:27;;;;;;;8.05;3.42;;;;;;;;;;4972696;28;20023;-68
2021/08/18 06:39:53;;;;;;;16.83;10.23;;;;;;;;;;4973273;28;20027;-68
2021/08/18 06:42:20;;;;;;;13.77;8.65;;;;;;;;;;4972411;28;20031;-68
2021/08/18 06:44:49;;;;;;;310.70;247.38;;;;;;;;;;4976406;28;20503;-68
2021/08/18 06:47:16;;;;;;;18.42;14.93;;;;;;;;;;4974484;28;20054;-68
2021/08/18 06:49:42;;;;;;;39.90;35.97;;;;;;;;;;4972403;28;20023;-67
2021/08/18 06:52:10;;;;;;;6.97;5.40;;;;;;;;;;4975107;28;20034;-67
2021/08/18 06:54:36;;;;;;;8.07;3.90;;;;;;;;;;4974840;28;20043;-68
2021/08/18 06:57:03;;;;;;;10.77;4.47;;;;;;;;;;4975387;28;20038;-66
2021/08/18 06:59:29;;;;;;;12.25;4.40;;;;;;;;;;4973264;28;20484;-66
2021/08/18 07:01:55;;;;;;;8.88;5.15;;;;;;;;;;4970030;28;20034;-67
2021/08/18 07:04:21;;;;;;;6.13;3.47;;;;;;;;;;4971977;28;20057;-67
2021/08/18 07:06:49;;;;;;;8.63;3.33;;;;;;;;;;4972371;28;20130;-67
2021/08/18 07:09:15;;;;;;;5.60;3.38;;;;;;;;;;4970014;28;20023;-67
2021/08/18 07:11:41;;;;;;;17.65;3.75;;;;;;;;;;4970952;28;20049;-67
2021/08/18 07:14:07;;;;;;;6.32;3.40;;;;;;;;;;4983073;28;20058;-68
2021/08/18 07:16:34;;;;;;;8.30;3.50;;;;;;;;;;4973014;28;20031;-68
2021/08/18 07:19:00;;;;;;;7.82;3.38;;;;;;;;;;4970382;28;20062;-67
2021/08/18 07:21:27;;;;;;;11.23;6.90;;;;;;;;;;4970853;28;20114;-68
2021/08/18 07:23:53;;;;;;;11.30;3.80;;;;;;;;;;4973950;28;20370;-68
2021/08/18 07:26:22;;;;;;;11.73;4.53;;;;;;;;;;4973589;28;20023;-68
2021/08/18 07:28:48;;;;;;;9.50;6.30;;;;;;;;;;4972839;28;20057;-77
2021/08/18 07:31:15;;;;;;;8.90;4.22;;;;;;;;;;4973108;28;20118;-67
2021/08/18 07:33:41;;;;;;;7.78;3.80;;;;;;;;;;4971189;28;20077;-74
2021/08/18 07:36:07;;;;;;;6.90;3.50;;;;;;;;;;4957300;28;20460;-76
2021/08/18 07:38:33;;;;;;;16.98;15.25;;;;;;;;;;4956567;28;20045;-76
2021/08/18 07:40:59;;;;;;;12.63;7.40;;;;;;;;;;4979054;28;20071;-68
2021/08/18 07:43:25;;;;;;;6.97;3.30;;;;;;;;;;4978834;28;20390;-68
2021/08/18 07:45:52;;;;;;;9.80;3.50;;;;;;;;;;4977248;28;20046;-67
2021/08/18 07:48:18;;;;;;;20.45;4.05;;;;;;;;;;4973122;28;20045;-67
2021/08/18 07:50:44;;;;;;;6.20;3.10;;;;;;;;;;4977632;28;20023;-67
2021/08/18 07:53:10;;;;;;;8.20;3.30;;;;;;;;;;4974583;28;20029;-67
2021/08/18 07:55:36;;;;;;;9.85;4.13;;;;;;;;;;4973418;28;20513;-67
2021/08/18 07:58:02;;;;;;;10.02;6.35;;;;;;;;;;4977636;28;20528;-67
2021/08/18 08:00:28;;;;;;;6.35;3.33;;;;;;;;;;4974913;28;20113;-67
2021/08/18 08:02:54;;;;;;;6.97;4.05;;;;;;;;;;4973234;28;20022;-68
2021/08/18 08:05:20;;;;;;;8.18;3.50;;;;;;;;;;4974944;28;20030;-68
2021/08/18 08:07:46;;;;;;;5.85;3.30;;;;;;;;;;4973693;28;20154;-67
2021/08/18 08:10:13;;;;;;;7.15;3.15;;;;;;;;;;4973703;28;20026;-67
2021/08/18 08:12:39;;;;;;;4.13;3.15;;;;;;;;;;4975362;28;20022;-68
2021/08/18 08:15:06;;;;;;;5.47;3.10;;;;;;;;;;4984010;28;20029;-66
2021/08/18 08:17:33;;;;;;;7.50;3.20;;;;;;;;;;4979199;28;20034;-67
2021/08/18 08:19:59;;;;;;;11.00;3.35;;;;;;;;;;4976887;28;20026;-65
2021/08/18 08:22:25;;;;;;;8.00;3.40;;;;;;;;;;4977972;28;20035;-68
2021/08/18 08:24:51;;;;;;;7.93;3.17;;;;;;;;;;4980360;28;20037;-69
2021/08/18 08:27:18;;;;;;;6.47;2.80;;;;;;;;;;4972252;28;20023;-69
2021/08/18 08:29:46;;;;;;;6.20;3.20;;;;;;;;;;4975458;28;20094;-69
2021/08/18 08:32:12;;;;;;;8.63;3.33;;;;;;;;;;4978697;28;20029;-69
2021/08/18 08:34:39;;;;;;;7.03;3.13;;;;;;;;;;4975445;28;20110;-70
2021/08/18 08:37:05;;;;;;;8.02;3.50;;;;;;;;;;4979760;28;20515;-70
2021/08/18 08:39:51;;;;;;;18.38;3.75;;;;;;;;;;4977256;28;20059;-69
2021/08/18 08:42:17;;;;;;;7.00;3.15;;;;;;;;;;4935945;29;20071;-68
2021/08/18 08:44:44;;;;;;;7.75;3.20;;;;;;;;;;4934442;29;20032;-69
2021/08/18 08:47:10;;;;;;;8.13;3.10;;;;;;;;;;4923262;29;20095;-67
2021/08/18 08:49:49;;;;;;;9.05;3.65;;;;;;;;;;4913896;29;20036;-69
2021/08/18 08:53:01;;;;;;;7.97;2.90;;;;;;;;;;4912615;29;20028;-69
2021/08/18 08:55:27;;;;;;;5.47;3.13;;;;;;;;;;4908967;29;20054;-74
2021/08/18 08:57:56;;;;;;;12.55;3.00;;;;;;;;;;4917871;29;20092;-71
2021/08/18 09:00:22;;;;;;;5.57;3.28;;;;;;;;;;4909003;29;20048;-78
2021/08/18 09:03:09;;;;;;;5.20;2.83;;;;;;;;;;4894957;29;20055;-74
2021/08/18 09:05:44;;;;;;;11.13;3.50;;;;;;;;;;4836717;29;20920;-70
2021/08/18 09:08:32;;;;;;;6.55;3.13;;;;;;;;;;4841233;29;20050;-69
2021/08/18 09:11:06;;;;;;;16.38;3.53;;;;;;;;;;4822165;29;20049;-74
2021/08/18 09:14:11;;;;;;;8.15;2.78;;;;;;;;;;4840284;29;20091;-74
2021/08/18 09:16:38;;;;;;;8.82;3.35;;;;;;;;;;4764970;30;20514;-78
2021/08/18 09:19:04;;;;;;;10.77;3.13;;;;;;;;;;4782587;29;20122;-69
2021/08/18 09:21:40;;;;;;;5.18;2.92;;;;;;;;;;4801567;29;20524;-67
2021/08/18 09:24:27;;;;;;;5.07;2.97;;;;;;;;;;4801950;29;20055;-68
2021/08/18 09:26:57;;;;;;;7.60;3.38;;;;;;;;;;4800994;29;20038;-67
2021/08/18 09:29:37;;;;;;;5.80;2.83;;;;;;;;;;4802415;29;20125;-67
2021/08/18 09:32:18;;;;;;;7.68;3.22;;;;;;;;;;4801796;29;20035;-68
2021/08/18 09:34:54;;;;;;;8.18;2.78;;;;;;;;;;4807214;29;20050;-67
2021/08/18 09:37:21;;;;;;;9.20;3.15;;;;;;;;;;4797666;29;20113;-67
2021/08/18 09:39:47;;;;;;;10.55;3.13;;;;;;;;;;4800726;29;20034;-68
2021/08/18 09:42:30;;;;;;;4.50;2.85;;;;;;;;;;4824254;29;20040;-67
2021/08/18 09:45:08;;;;;;;3.58;2.70;;;;;;;;;;4871619;29;20049;-69
2021/08/18 09:47:35;;;;;;;4.85;2.80;;;;;;;;;;4886584;29;20052;-85
2021/08/18 09:50:01;;;;;;;7.38;3.20;;;;;;;;;;4913884;28;20044;-76
2021/08/18 09:52:27;;;;;;;5.22;3.00;;;;;;;;;;4953985;28;20030;-85
2021/08/18 09:54:53;;;;;;;7.05;3.10;;;;;;;;;;4971203;28;20165;-78
2021/08/18 09:57:33;;;;;;;5.07;3.00;;;;;;;;;;4970311;28;20030;-67
2021/08/18 09:59:59;;;;;;;6.53;3.28;;;;;;;;;;4971097;28;20102;-66
2021/08/18 10:02:25;;;;;;;8.07;2.88;;;;;;;;;;4972102;28;20062;-67
2021/08/18 10:04:58;;;;;;;8.98;2.90;;;;;;;;;;4972388;28;20039;-68
2021/08/18 10:07:25;;;;;;;6.03;2.90;;;;;;;;;;4971495;28;20035;-66
2021/08/18 10:09:53;;;;;;;7.35;2.92;;;;;;;;;;4971431;28;20038;-67
2021/08/18 10:12:19;;;;;;;6.90;2.88;;;;;;;;;;4969319;28;20155;-74
2021/08/18 10:14:46;;;;;;;7.95;2.80;;;;;;;;;;4968902;28;20027;-66
2021/08/18 10:17:12;;;;;;;6.78;3.05;;;;;;;;;;4973852;28;20042;-66
2021/08/18 10:19:38;;;;;;;6.90;3.30;;;;;;;;;;4971921;28;20594;-84
2021/08/18 10:22:04;;;;;;;8.55;3.35;;;;;;;;;;4969821;28;20037;-83
2021/08/18 10:24:38;;;;;;;9.80;3.03;;;;;;;;;;4971340;28;20437;-81
2021/08/18 10:27:05;;;;;;;7.43;3.22;;;;;;;;;;4972867;28;20042;-83
2021/08/18 10:29:36;;;;;;;5.22;2.88;;;;;;;;;;4955076;28;20047;-76
2021/08/18 10:32:03;;;;;;;10.10;3.10;;;;;;;;;;4974040;28;20396;-67
2021/08/18 10:34:32;;;;;;;8.73;3.63;;;;;;;;;;4973666;28;20054;-75
2021/08/18 10:37:01;;;;;;;8.57;3.10;;;;;;;;;;4971858;28;20126;-76
2021/08/18 10:39:29;;;;;;;6.88;3.15;;;;;;;;;;4971775;28;20475;-73
2021/08/18 10:42:10;;;;;;;8.70;3.28;;;;;;;;;;4969457;28;20057;-72
2021/08/18 10:44:49;;;;;;;6.10;3.28;;;;;;;;;;4973847;28;20029;-73
2021/08/18 10:47:32;;;;;;;43.33;5.15;;;;;;;;;;4954825;28;20523;-70
2021/08/18 10:50:24;;;;;;;13.65;3.45;;;;;;;;;;4954227;28;20125;-75
2021/08/18 10:52:54;;;;;;;7.75;3.00;;;;;;;;;;4971489;28;20793;-69
2021/08/18 10:55:26;;;;;;;9.10;3.35;;;;;;;;;;4972789;28;20484;-70
2021/08/18 10:57:52;;;;;;;5.43;2.95;;;;;;;;;;4972972;28;20388;-67
2021/08/18 11:00:33;;;;;;;12.20;3.13;;;;;;;;;;4976900;28;20042;-66
2021/08/18 11:03:17;;;;;;;7.00;2.90;;;;;;;;;;4968446;28;20014;-70
2021/08/18 11:05:50;;;;;;;4.93;3.35;;;;;;;;;;4972171;28;20575;-69
2021/08/18 11:08:16;;;;;;;11.20;3.35;;;;;;;;;;4971718;28;20506;-68
2021/08/18 11:10:54;;;;;;;24.30;3.63;;;;;;;;;;4973805;28;20039;-66
2021/08/18 11:13:43;;;;;;;4.47;3.10;;;;;;;;;;4976348;28;20429;-69
2021/08/18 11:16:11;;;;;;;4.75;2.80;;;;;;;;;;4936593;29;20450;-81
2021/08/18 11:18:59;;;;;;;9.68;3.08;;;;;;;;;;4934196;29;20138;-74
2021/08/18 11:21:28;;;;;;;11.65;3.40;;;;;;;;;;4931091;29;20047;-73
2021/08/18 11:24:02;;;;;;;6.43;3.35;;;;;;;;;;4932909;29;20028;-73
2021/08/18 11:26:32;;;;;;;4.30;2.95;;;;;;;;;;4932336;29;20472;-85
2021/08/18 11:29:03;;;;;;;5.45;3.10;;;;;;;;;;4933569;29;20036;-74
2021/08/18 11:31:30;;;;;;;7.88;3.30;;;;;;;;;;4934476;29;20039;-72
2021/08/18 11:33:56;;;;;;;7.43;3.33;;;;;;;;;;4933567;29;20046;-77
2021/08/18 11:36:24;;;;;;;4.45;2.90;;;;;;;;;;4933973;29;20039;-73
2021/08/18 11:38:57;;;;;;;14.40;3.30;;;;;;;;;;4933928;29;20035;-72
2021/08/18 11:41:36;;;;;;;9.57;3.05;;;;;;;;;;4933383;29;20046;-71
2021/08/18 11:44:32;;;;;;;6.50;2.90;;;;;;;;;;4931290;29;20039;-71
2021/08/18 11:47:16;;;;;;;6.22;3.00;;;;;;;;;;4883736;29;20040;-70
2021/08/18 11:49:44;;;;;;;7.57;3.28;;;;;;;;;;4896956;29;20157;-68
2021/08/18 11:52:27;;;;;;;10.70;3.25;;;;;;;;;;4893752;29;20566;-85
2021/08/18 11:54:56;;;;;;;5.50;2.90;;;;;;;;;;4896188;29;20159;-66
2021/08/18 11:57:23;;;;;;;6.68;3.00;;;;;;;;;;4898935;29;20104;-67
2021/08/18 11:59:50;;;;;;;6.95;2.80;;;;;;;;;;4897207;29;20037;-83
2021/08/18 12:02:16;;;;;;;4.70;2.90;;;;;;;;;;4885753;29;20036;-66
2021/08/18 12:04:43;;;;;;;6.00;3.03;;;;;;;;;;4897450;29;20096;-69
2021/08/18 12:07:15;;;;;;;4.55;2.80;;;;;;;;;;4905384;29;20063;-69
2021/08/18 12:09:42;;;;;;;14.90;4.28;;;;;;;;;;4894269;29;20041;-67
2021/08/18 12:12:15;;;;;;;4.80;3.00;;;;;;;;;;4894801;29;20132;-68
2021/08/18 12:14:45;;;;;;;6.75;3.13;;;;;;;;;;4893854;29;20200;-69
2021/08/18 12:17:12;;;;;;;13.25;3.38;;;;;;;;;;4894139;29;20105;-70
2021/08/18 12:19:39;;;;;;;14.20;3.72;;;;;;;;;;4895494;29;20032;-87
2021/08/18 12:22:13;;;;;;;11.05;3.10;;;;;;;;;;4880456;29;20059;-82
2021/08/18 12:24:40;;;;;;;30.52;4.22;;;;;;;;;;4971895;28;20029;-68
2021/08/18 12:27:07;;;;;;;10.27;3.65;;;;;;;;;;4975479;28;20023;-64
2021/08/18 12:29:34;;;;;;;13.82;3.33;;;;;;;;;;4976602;28;20042;-63
2021/08/18 12:32:01;;;;;;;5.47;3.00;;;;;;;;;;4976523;28;20027;-63
2021/08/18 12:34:32;;;;;;;7.72;3.05;;;;;;;;;;4977289;28;20476;-64
2021/08/18 12:36:59;;;;;;;9.32;3.22;;;;;;;;;;4971567;28;20039;-64
2021/08/18 12:39:29;;;;;;;5.65;3.10;;;;;;;;;;4977708;28;20484;-64
2021/08/18 12:41:56;;;;;;;5.88;3.08;;;;;;;;;;4979033;28;20027;-65
2021/08/18 12:44:28;;;;;;;6.25;3.33;;;;;;;;;;4973619;28;20050;-64
2021/08/18 12:47:03;;;;;;;6.95;3.50;;;;;;;;;;4965193;28;20039;-64
2021/08/18 12:49:30;;;;;;;5.40;3.05;;;;;;;;;;4948032;28;20489;-64
2021/08/18 12:51:57;;;;;;;6.88;3.63;;;;;;;;;;4952825;28;20035;-66
2021/08/18 12:54:24;;;;;;;4.72;3.47;;;;;;;;;;4955284;28;20456;-66
2021/08/18 12:56:50;;;;;;;5.95;3.30;;;;;;;;;;4954023;29;20095;-66
2021/08/18 12:59:16;;;;;;;6.22;3.22;;;;;;;;;;4953345;28;20114;-66
2021/08/18 13:01:42;;;;;;;6.72;3.10;;;;;;;;;;4954267;29;20034;-65
2021/08/18 13:04:09;;;;;;;8.50;3.38;;;;;;;;;;4953724;29;20088;-67
2021/08/18 13:06:35;;;;;;;5.72;3.20;;;;;;;;;;4951136;28;20105;-66
2021/08/18 13:09:01;;;;;;;6.38;3.20;;;;;;;;;;4952874;29;20027;-66
2021/08/18 13:11:27;;;;;;;10.15;3.88;;;;;;;;;;4953965;29;20031;-66
2021/08/18 13:13:53;;;;;;;7.82;3.65;;;;;;;;;;4953627;29;20400;-66
2021/08/18 13:16:19;;;;;;;6.15;3.53;;;;;;;;;;4953397;29;20031;-66
2021/08/18 13:18:45;;;;;;;8.70;3.58;;;;;;;;;;4953716;29;20028;-66
2021/08/18 13:21:11;;;;;;;7.53;3.80;;;;;;;;;;4953188;29;20554;-66
2021/08/18 13:23:37;;;;;;;7.03;3.97;;;;;;;;;;4952791;29;20031;-64
2021/08/18 13:26:03;;;;;;;8.25;3.67;;;;;;;;;;4953991;29;20434;-66
2021/08/18 13:28:29;;;;;;;6.97;3.30;;;;;;;;;;4952426;29;20485;-66
2021/08/18 13:30:56;;;;;;;17.77;4.10;;;;;;;;;;4953019;29;20036;-64
2021/08/18 13:33:22;;;;;;;5.25;3.38;;;;;;;;;;4955581;28;20041;-66
2021/08/18 13:35:48;;;;;;;6.13;3.10;;;;;;;;;;4953239;28;20039;-65
2021/08/18 13:38:14;;;;;;;8.07;3.38;;;;;;;;;;4954688;28;20023;-69
2021/08/18 13:40:40;;;;;;;33.70;4.90;;;;;;;;;;4953558;29;20027;-66
2021/08/18 13:43:06;;;;;;;6.47;3.35;;;;;;;;;;4935658;29;20370;-65
2021/08/18 13:45:32;;;;;;;4.65;3.13;;;;;;;;;;4953416;29;20035;-66
2021/08/18 13:47:58;;;;;;;5.72;3.33;;;;;;;;;;4959904;28;20095;-66
2021/08/18 13:50:27;;;;;;;7.05;2.90;;;;;;;;;;4957014;28;20886;-65
2021/08/18 13:52:53;;;;;;;8.00;3.10;;;;;;;;;;4956790;28;20485;-66
2021/08/18 13:55:20;;;;;;;11.10;3.40;;;;;;;;;;4951264;28;20039;-65
2021/08/18 13:57:46;;;;;;;4.60;2.90;;;;;;;;;;4954015;28;20042;-65
2021/08/18 14:00:12;;;;;;;11.65;3.38;;;;;;;;;;4955216;28;20434;-65
2021/08/18 14:02:38;;;;;;;3.95;3.15;;;;;;;;;;4958788;28;20019;-65
2021/08/18 14:05:04;;;;;;;5.30;3.00;;;;;;;;;;4955638;28;20389;-66
2021/08/18 14:07:31;;;;;;;5.05;3.50;;;;;;;;;;4953005;28;20122;-65
2021/08/18 14:09:57;;;;;;;6.53;3.25;;;;;;;;;;4955687;28;20031;-65
2021/08/18 14:12:23;;;;;;;5.22;3.28;;;;;;;;;;4957428;28;20023;-66
2021/08/18 14:14:49;;;;;;;7.78;3.47;;;;;;;;;;4953780;28;20027;-66
2021/08/18 14:17:16;;;;;;;5.90;3.15;;;;;;;;;;4955120;28;20380;-66
2021/08/18 14:19:42;;;;;;;6.80;3.10;;;;;;;;;;4960565;28;20026;-67
2021/08/18 14:22:08;;;;;;;5.32;2.90;;;;;;;;;;4959600;28;20054;-66
2021/08/18 14:24:34;;;;;;;10.77;3.40;;;;;;;;;;4955608;28;20047;-68
2021/08/18 14:27:00;;;;;;;7.38;3.40;;;;;;;;;;4954858;28;20039;-67
2021/08/18 14:29:29;;;;;;;13.98;3.50;;;;;;;;;;4961807;28;20485;-66
2021/08/18 14:31:55;;;;;;;7.53;3.17;;;;;;;;;;4953762;28;20054;-66
2021/08/18 14:34:21;;;;;;;19.48;4.15;;;;;;;;;;4957586;28;20434;-67
2021/08/18 14:36:47;;;;;;;6.90;3.22;;;;;;;;;;4956049;28;20035;-67
2021/08/18 14:39:14;;;;;;;7.30;3.10;;;;;;;;;;4969531;28;20484;-67
2021/08/18 14:41:40;;;;;;;9.57;3.65;;;;;;;;;;4954081;28;20042;-67
2021/08/18 14:44:07;;;;;;;6.65;3.20;;;;;;;;;;4958447;28;20438;-66
2021/08/18 14:46:33;;;;;;;8.30;3.70;;;;;;;;;;4956169;28;20130;-65